Time;durP1;ratioP1;P1;durP2;ratioP2;P2;SDS_P1;SDS_P2;PMS_P1;PMS_P2;Temp;Humidity;BMP_temperature;BMP_pressure;BME280_temperature;BME280_humidity;BME280_pressure;Samples;Min_cycle;Max_cycle;Signal;HPM_P1;HPM_P2
2022/07/10 00:01:17;;;;;;;11.65;7.47;;;;;;;;;;7727838;23;20091;-60
2022/07/10 00:04:20;;;;;;;11.15;6.45;;;;;;;;;;7725251;23;20016;-60
2022/07/10 00:07:21;;;;;;;11.27;6.45;;;;;;;;;;7728837;23;20091;-59
2022/07/10 00:10:22;;;;;;;11.05;6.63;;;;;;;;;;7726298;23;20596;-60
2022/07/10 00:13:23;;;;;;;11.95;7.20;;;;;;;;;;7729379;23;20028;-60
2022/07/10 00:16:24;;;;;;;11.25;6.85;;;;;;;;;;7728071;23;20035;-60
2022/07/10 00:19:25;;;;;;;17.08;8.05;;;;;;;;;;7731448;23;20689;-61
2022/07/10 00:22:25;;;;;;;12.15;6.47;;;;;;;;;;7730348;23;20016;-60
2022/07/10 00:25:26;;;;;;;14.23;6.97;;;;;;;;;;7726665;23;20121;-60
2022/07/10 00:28:27;;;;;;;12.68;7.22;;;;;;;;;;7729095;23;20715;-61
2022/07/10 00:31:27;;;;;;;13.30;6.82;;;;;;;;;;7728454;23;20024;-60
2022/07/10 00:34:28;;;;;;;13.75;6.82;;;;;;;;;;7742508;23;20016;-60
2022/07/10 00:37:29;;;;;;;13.13;7.80;;;;;;;;;;7744626;23;20046;-60
2022/07/10 00:40:30;;;;;;;10.77;6.73;;;;;;;;;;7746753;23;20016;-62
2022/07/10 00:43:51;;;;;;;15.77;7.53;;;;;;;;;;7745980;23;20638;-62
2022/07/10 00:46:51;;;;;;;18.10;8.02;;;;;;;;;;7741093;23;20020;-61
2022/07/10 00:49:52;;;;;;;13.40;7.85;;;;;;;;;;7741621;23;20022;-61
2022/07/10 00:52:54;;;;;;;13.98;6.93;;;;;;;;;;7742525;23;20016;-61
2022/07/10 00:55:54;;;;;;;15.70;7.38;;;;;;;;;;7741153;23;20048;-60
2022/07/10 00:58:55;;;;;;;16.88;7.68;;;;;;;;;;7742512;23;20403;-60
2022/07/10 01:01:55;;;;;;;12.95;7.68;;;;;;;;;;7741234;23;20016;-62
2022/07/10 01:04:57;;;;;;;12.60;7.68;;;;;;;;;;7740166;23;20119;-60
2022/07/10 01:07:58;;;;;;;12.18;7.50;;;;;;;;;;7742354;23;20094;-60
2022/07/10 01:10:59;;;;;;;10.60;7.13;;;;;;;;;;7742196;23;20124;-60
2022/07/10 01:14:01;;;;;;;13.30;7.90;;;;;;;;;;7740526;23;20032;-61
2022/07/10 01:17:01;;;;;;;14.23;8.27;;;;;;;;;;7741823;23;20343;-60
2022/07/10 01:20:09;;;;;;;14.02;8.27;;;;;;;;;;7738814;23;20027;-61
2022/07/10 01:23:10;;;;;;;16.00;7.90;;;;;;;;;;7739644;23;20051;-60
2022/07/10 01:26:11;;;;;;;15.43;8.77;;;;;;;;;;7740381;23;20145;-61
2022/07/10 01:29:11;;;;;;;15.70;7.97;;;;;;;;;;7743424;23;20383;-61
2022/07/10 01:32:12;;;;;;;16.67;8.35;;;;;;;;;;7741339;23;20769;-61
2022/07/10 01:35:13;;;;;;;16.05;8.35;;;;;;;;;;7739268;23;20020;-61
2022/07/10 01:38:13;;;;;;;14.18;8.30;;;;;;;;;;7743221;23;20100;-61
2022/07/10 01:41:14;;;;;;;16.23;8.43;;;;;;;;;;7741330;23;20020;-61
2022/07/10 01:44:15;;;;;;;17.35;8.52;;;;;;;;;;7741543;23;20467;-61
2022/07/10 01:47:15;;;;;;;14.25;8.18;;;;;;;;;;7742518;23;20099;-61
2022/07/10 01:50:16;;;;;;;14.05;7.53;;;;;;;;;;7750356;23;20020;-60
2022/07/10 01:53:17;;;;;;;17.33;8.48;;;;;;;;;;7754852;23;20103;-60
2022/07/10 01:56:17;;;;;;;13.88;8.05;;;;;;;;;;7741944;23;20051;-61
2022/07/10 01:59:18;;;;;;;17.35;8.52;;;;;;;;;;7743705;23;20073;-60
2022/07/10 02:02:19;;;;;;;13.65;7.78;;;;;;;;;;7741386;23;20375;-61
2022/07/10 02:05:19;;;;;;;13.82;7.63;;;;;;;;;;7741110;23;20099;-61
2022/07/10 02:08:20;;;;;;;14.73;7.80;;;;;;;;;;7740559;23;20027;-61
2022/07/10 02:11:20;;;;;;;11.65;7.15;;;;;;;;;;7739272;23;20016;-60
2022/07/10 02:14:21;;;;;;;14.38;7.68;;;;;;;;;;7742446;23;20016;-61
2022/07/10 02:17:23;;;;;;;13.38;7.35;;;;;;;;;;7740215;23;20024;-61
2022/07/10 02:20:24;;;;;;;12.80;6.95;;;;;;;;;;7738327;23;20108;-60
2022/07/10 02:23:24;;;;;;;15.05;7.05;;;;;;;;;;7742517;23;20013;-60
2022/07/10 02:26:25;;;;;;;13.82;6.30;;;;;;;;;;7740827;23;20020;-60
2022/07/10 02:29:25;;;;;;;13.02;6.50;;;;;;;;;;7741495;23;20022;-61
2022/07/10 02:32:26;;;;;;;13.95;7.25;;;;;;;;;;7740731;23;20475;-60
2022/07/10 02:35:26;;;;;;;12.07;6.75;;;;;;;;;;7739761;23;20096;-61
2022/07/10 02:38:27;;;;;;;11.40;6.50;;;;;;;;;;7738285;23;20379;-61
2022/07/10 02:41:27;;;;;;;12.73;6.63;;;;;;;;;;7740356;23;20119;-61
2022/07/10 02:44:29;;;;;;;10.68;6.03;;;;;;;;;;7753363;23;20027;-61
2022/07/10 02:47:30;;;;;;;11.57;5.87;;;;;;;;;;7741361;23;20028;-61
2022/07/10 02:50:30;;;;;;;12.07;6.32;;;;;;;;;;7739955;23;20067;-61
2022/07/10 02:53:31;;;;;;;11.15;5.53;;;;;;;;;;7739336;23;20012;-61
2022/07/10 02:56:31;;;;;;;13.23;6.53;;;;;;;;;;7741177;23;20028;-61
2022/07/10 02:59:32;;;;;;;12.48;6.20;;;;;;;;;;7740374;23;20097;-61
2022/07/10 03:02:33;;;;;;;12.88;6.03;;;;;;;;;;7740576;23;20657;-60
2022/07/10 03:05:33;;;;;;;10.05;5.60;;;;;;;;;;7740502;23;20380;-60
2022/07/10 03:08:35;;;;;;;11.13;6.00;;;;;;;;;;7741400;23;20094;-62
2022/07/10 03:11:35;;;;;;;10.93;5.88;;;;;;;;;;7740333;23;20103;-61
2022/07/10 03:14:36;;;;;;;11.03;5.77;;;;;;;;;;7741841;23;20111;-61
2022/07/10 03:17:37;;;;;;;10.52;5.80;;;;;;;;;;7740471;23;20028;-61
2022/07/10 03:20:38;;;;;;;9.32;5.45;;;;;;;;;;7738550;23;20016;-60
2022/07/10 03:23:41;;;;;;;12.10;5.80;;;;;;;;;;7737991;23;20094;-60
2022/07/10 03:26:41;;;;;;;10.55;5.50;;;;;;;;;;7739395;23;20020;-60
2022/07/10 03:29:42;;;;;;;10.85;5.00;;;;;;;;;;7738467;23;20166;-60
2022/07/10 03:32:42;;;;;;;8.25;4.78;;;;;;;;;;7739506;23;20415;-60
2022/07/10 03:35:43;;;;;;;10.55;5.40;;;;;;;;;;7736871;23;20094;-60
2022/07/10 03:38:45;;;;;;;9.13;5.25;;;;;;;;;;7740693;23;20016;-60
2022/07/10 03:41:46;;;;;;;11.45;6.28;;;;;;;;;;7740224;23;20365;-61
2022/07/10 03:44:47;;;;;;;8.73;5.10;;;;;;;;;;7739116;23;20039;-60
2022/07/10 03:47:48;;;;;;;11.60;5.25;;;;;;;;;;7740219;23;20091;-62
2022/07/10 03:50:52;;;;;;;9.93;5.32;;;;;;;;;;7739328;23;20036;-60
2022/07/10 03:53:52;;;;;;;9.15;5.47;;;;;;;;;;7743877;23;20016;-61
2022/07/10 04:00:12;;;;;;;12.65;5.57;;;;;;;;;;7751488;23;20019;-61
2022/07/10 04:03:13;;;;;;;12.43;5.43;;;;;;;;;;7741739;23;20027;-61
2022/07/10 04:06:14;;;;;;;10.30;5.40;;;;;;;;;;7743600;23;20050;-61
2022/07/10 04:09:14;;;;;;;10.32;5.80;;;;;;;;;;7742219;23;20040;-61
2022/07/10 04:12:15;;;;;;;9.88;5.70;;;;;;;;;;7739233;23;20023;-59
2022/07/10 04:15:16;;;;;;;12.50;5.53;;;;;;;;;;7742203;23;20478;-61
2022/07/10 04:18:16;;;;;;;10.30;5.75;;;;;;;;;;7742758;23;20238;-61
2022/07/10 04:21:17;;;;;;;8.10;5.60;;;;;;;;;;7739444;23;20019;-61
2022/07/10 04:24:18;;;;;;;13.35;6.80;;;;;;;;;;7740281;23;20589;-61
2022/07/10 04:27:19;;;;;;;9.52;6.25;;;;;;;;;;7740800;23;20099;-60
2022/07/10 04:30:20;;;;;;;9.10;5.55;;;;;;;;;;7741350;23;20475;-61
2022/07/10 04:33:20;;;;;;;9.32;6.22;;;;;;;;;;7740944;23;20020;-60
2022/07/10 04:36:21;;;;;;;9.55;6.10;;;;;;;;;;7742756;23;20090;-61
2022/07/10 04:39:21;;;;;;;9.25;5.70;;;;;;;;;;7753169;23;20023;-60
2022/07/10 04:42:22;;;;;;;10.30;6.10;;;;;;;;;;7740371;23;20374;-60
2022/07/10 04:45:22;;;;;;;11.32;6.38;;;;;;;;;;7744048;23;20122;-60
2022/07/10 04:48:23;;;;;;;12.20;7.75;;;;;;;;;;7744580;23;20463;-60
2022/07/10 04:51:24;;;;;;;12.52;8.13;;;;;;;;;;7745138;23;20395;-60
2022/07/10 04:54:24;;;;;;;12.40;7.40;;;;;;;;;;7745084;23;20016;-60
2022/07/10 04:57:25;;;;;;;12.43;7.28;;;;;;;;;;7746351;23;20103;-61
2022/07/10 05:00:26;;;;;;;12.50;7.97;;;;;;;;;;7746198;23;20411;-60
2022/07/10 05:03:29;;;;;;;11.05;6.75;;;;;;;;;;7746071;23;20099;-61
2022/07/10 05:06:30;;;;;;;11.02;7.47;;;;;;;;;;7745387;23;20531;-61
2022/07/10 05:09:31;;;;;;;12.85;8.50;;;;;;;;;;7745166;23;20042;-61
2022/07/10 05:12:31;;;;;;;12.43;7.50;;;;;;;;;;7745512;23;20094;-61
2022/07/10 05:15:32;;;;;;;12.70;8.05;;;;;;;;;;7745685;23;20020;-61
2022/07/10 05:18:32;;;;;;;13.73;7.65;;;;;;;;;;7742653;23;20094;-61
2022/07/10 05:21:33;;;;;;;14.07;7.63;;;;;;;;;;7737616;23;20028;-60
2022/07/10 05:24:33;;;;;;;12.73;7.70;;;;;;;;;;7742460;23;20099;-61
2022/07/10 05:27:34;;;;;;;12.27;7.32;;;;;;;;;;7739533;23;20126;-61
2022/07/10 05:30:35;;;;;;;11.57;7.40;;;;;;;;;;7740781;23;20482;-60
2022/07/10 05:33:38;;;;;;;12.88;6.50;;;;;;;;;;7741861;23;20024;-59
2022/07/10 05:36:38;;;;;;;10.32;6.18;;;;;;;;;;7743612;23;20048;-60
2022/07/10 05:39:39;;;;;;;8.05;4.85;;;;;;;;;;7742755;23;20019;-59
2022/07/10 05:42:39;;;;;;;9.18;5.50;;;;;;;;;;7741481;23;20034;-59
2022/07/10 05:45:40;;;;;;;7.03;4.25;;;;;;;;;;7741601;23;20332;-59
2022/07/10 05:48:40;;;;;;;6.63;4.28;;;;;;;;;;7741568;23;20111;-59
2022/07/10 05:51:41;;;;;;;8.40;4.68;;;;;;;;;;7741354;23;20027;-60
2022/07/10 05:54:42;;;;;;;10.98;4.53;;;;;;;;;;7752974;23;20020;-59
2022/07/10 05:57:43;;;;;;;7.68;4.28;;;;;;;;;;7741803;23;20040;-60
2022/07/10 06:00:45;;;;;;;7.35;4.22;;;;;;;;;;7742287;23;20019;-60
2022/07/10 06:03:46;;;;;;;6.25;4.30;;;;;;;;;;7740590;23;20075;-60
2022/07/10 06:06:46;;;;;;;13.38;4.20;;;;;;;;;;7740271;23;20122;-59
2022/07/10 06:09:47;;;;;;;6.00;4.05;;;;;;;;;;7741186;23;20020;-59
2022/07/10 06:12:48;;;;;;;8.85;4.22;;;;;;;;;;7740817;23;20981;-60
2022/07/10 06:15:48;;;;;;;5.47;3.80;;;;;;;;;;7742057;23;20024;-60
2022/07/10 06:18:49;;;;;;;7.32;3.72;;;;;;;;;;7754376;23;20087;-59
2022/07/10 06:22:30;;;;;;;6.47;3.70;;;;;;;;;;7738300;23;20016;-60
2022/07/10 06:25:11;;;;;;;8.73;3.90;;;;;;;;;;7748729;23;20031;-59
2022/07/10 06:28:12;;;;;;;;;;;;;;;;;;7742741;23;20305;-60
2022/07/10 06:31:12;;;;;;;9.77;4.10;;;;;;;;;;7738500;23;19922;-60
2022/07/10 06:34:13;;;;;;;6.40;3.78;;;;;;;;;;7740605;23;20020;-60
2022/07/10 06:37:13;;;;;;;7.30;3.78;;;;;;;;;;7740626;23;20130;-60
2022/07/10 06:40:17;;;;;;;7.15;3.70;;;;;;;;;;7738788;23;20023;-60
2022/07/10 06:43:17;;;;;;;12.15;4.10;;;;;;;;;;7738000;23;20100;-60
2022/07/10 06:46:18;;;;;;;8.38;4.10;;;;;;;;;;7736814;23;20043;-60
2022/07/10 06:49:19;;;;;;;6.75;3.70;;;;;;;;;;7738781;23;20024;-60
2022/07/10 06:52:20;;;;;;;7.68;4.05;;;;;;;;;;7736164;23;20102;-60
2022/07/10 06:55:21;;;;;;;7.03;4.20;;;;;;;;;;7739733;23;20576;-60
2022/07/10 06:58:21;;;;;;;6.13;4.18;;;;;;;;;;7753408;23;20454;-60
2022/07/10 07:01:22;;;;;;;8.20;4.05;;;;;;;;;;7741212;23;20087;-60
2022/07/10 07:04:23;;;;;;;9.05;3.88;;;;;;;;;;7740593;23;20019;-60
2022/07/10 07:07:23;;;;;;;7.75;3.63;;;;;;;;;;7737735;23;20016;-60
2022/07/10 07:10:24;;;;;;;5.68;3.88;;;;;;;;;;7741319;23;20027;-60
2022/07/10 07:13:24;;;;;;;7.28;3.67;;;;;;;;;;7741082;23;20779;-59
2022/07/10 07:16:37;;;;;;;5.93;3.25;;;;;;;;;;7743690;23;20099;-60
2022/07/10 07:23:09;;;;;;;6.18;3.20;;;;;;;;;;7741198;23;20020;-60
2022/07/10 07:26:10;;;;;;;5.97;3.10;;;;;;;;;;7742672;23;20020;-60
2022/07/10 07:29:11;;;;;;;4.78;2.70;;;;;;;;;;7742833;23;20515;-60
2022/07/10 07:32:11;;;;;;;6.63;2.65;;;;;;;;;;7741751;23;20016;-60
2022/07/10 07:35:13;;;;;;;5.88;2.80;;;;;;;;;;7750443;23;20020;-60
2022/07/10 07:38:14;;;;;;;;;;;;;;;;;;7744068;23;20096;-60
2022/07/10 07:41:15;;;;;;;4.85;2.30;;;;;;;;;;7743057;23;20334;-60
2022/07/10 07:44:17;;;;;;;3.38;2.40;;;;;;;;;;7742204;23;20099;-60
2022/07/10 07:47:18;;;;;;;6.07;2.35;;;;;;;;;;7741668;23;20130;-60
2022/07/10 07:50:25;;;;;;;7.15;2.85;;;;;;;;;;7743858;23;20016;-60
2022/07/10 07:53:26;;;;;;;7.10;3.53;;;;;;;;;;7742746;23;20036;-60
2022/07/10 07:56:26;;;;;;;10.88;3.08;;;;;;;;;;7736792;23;20024;-60
2022/07/10 07:59:27;;;;;;;7.75;3.70;;;;;;;;;;7742427;23;20479;-60
2022/07/10 08:02:27;;;;;;;8.75;2.63;;;;;;;;;;7741952;23;20182;-60
2022/07/10 08:05:29;;;;;;;8.50;2.30;;;;;;;;;;7751376;23;20047;-59
2022/07/10 08:08:30;;;;;;;5.73;2.17;;;;;;;;;;7716572;23;20020;-60
2022/07/10 08:11:31;;;;;;;5.10;1.92;;;;;;;;;;7744285;23;20418;-60
2022/07/10 08:14:31;;;;;;;5.88;2.20;;;;;;;;;;7744580;23;20016;-60
2022/07/10 08:17:32;;;;;;;6.53;2.20;;;;;;;;;;7743932;23;20466;-60
2022/07/10 08:20:33;;;;;;;5.13;2.10;;;;;;;;;;7744897;23;20103;-60
2022/07/10 08:23:33;;;;;;;5.13;2.10;;;;;;;;;;7745080;23;20016;-60
2022/07/10 08:26:34;;;;;;;4.88;2.33;;;;;;;;;;7751965;23;20150;-60
2022/07/10 08:29:35;;;;;;;6.65;2.20;;;;;;;;;;7748044;23;20012;-59
2022/07/10 08:32:36;;;;;;;5.25;2.70;;;;;;;;;;7745406;23;20505;-60
2022/07/10 08:35:37;;;;;;;5.35;2.30;;;;;;;;;;7741201;23;20491;-60
2022/07/10 08:38:37;;;;;;;6.28;2.65;;;;;;;;;;7739298;23;20016;-60
2022/07/10 08:41:38;;;;;;;5.90;2.65;;;;;;;;;;7741200;23;20035;-60
2022/07/10 08:44:39;;;;;;;5.53;2.35;;;;;;;;;;7741486;23;20012;-59
2022/07/10 08:47:44;;;;;;;5.73;2.20;;;;;;;;;;7742010;23;20427;-61
2022/07/10 08:50:47;;;;;;;6.82;2.28;;;;;;;;;;7742140;23;20054;-60
2022/07/10 08:53:50;;;;;;;7.03;2.10;;;;;;;;;;7739557;23;20069;-60
2022/07/10 08:56:51;;;;;;;6.53;2.10;;;;;;;;;;7740758;23;20447;-60
2022/07/10 08:59:53;;;;;;;9.55;2.28;;;;;;;;;;7739147;23;20330;-60
2022/07/10 09:02:55;;;;;;;4.80;1.52;;;;;;;;;;7741768;23;20490;-60
2022/07/10 09:05:56;;;;;;;4.47;1.50;;;;;;;;;;7742289;23;20040;-60
2022/07/10 09:09:05;;;;;;;4.60;1.73;;;;;;;;;;7743437;23;20024;-60
2022/07/10 09:12:06;;;;;;;3.92;1.50;;;;;;;;;;7742920;23;20486;-60
2022/07/10 09:15:16;;;;;;;7.63;2.40;;;;;;;;;;7742089;23;20043;-60
2022/07/10 09:18:20;;;;;;;4.80;1.60;;;;;;;;;;7742515;23;20023;-60
2022/07/10 09:21:21;;;;;;;4.43;1.30;;;;;;;;;;7741420;23;20016;-60
2022/07/10 09:24:23;;;;;;;4.55;1.60;;;;;;;;;;7741902;23;20058;-60
2022/07/10 09:27:23;;;;;;;7.00;1.67;;;;;;;;;;7743137;23;20111;-60
2022/07/10 09:30:41;;;;;;;5.55;1.52;;;;;;;;;;7740945;23;20020;-60
2022/07/10 09:33:41;;;;;;;7.47;1.80;;;;;;;;;;7742841;23;20051;-60
2022/07/10 09:36:43;;;;;;;7.93;1.80;;;;;;;;;;7738955;23;20020;-60
2022/07/10 09:40:04;;;;;;;5.97;2.10;;;;;;;;;;7741814;23;20016;-60
2022/07/10 09:43:04;;;;;;;3.92;1.52;;;;;;;;;;7741566;23;20336;-60
2022/07/10 09:46:08;;;;;;;5.63;1.77;;;;;;;;;;7741321;23;20078;-60
2022/07/10 09:49:13;;;;;;;5.70;1.60;;;;;;;;;;7741230;23;20097;-60
2022/07/10 09:52:15;;;;;;;4.60;1.52;;;;;;;;;;7740295;23;20024;-60
2022/07/10 09:55:18;;;;;;;6.43;1.70;;;;;;;;;;7740839;23;20185;-60
2022/07/10 09:58:26;;;;;;;6.43;1.60;;;;;;;;;;7741076;23;20073;-60
2022/07/10 10:01:28;;;;;;;5.00;1.67;;;;;;;;;;7741871;23;20095;-60
2022/07/10 10:04:30;;;;;;;3.83;1.80;;;;;;;;;;7741867;23;20091;-60
2022/07/10 10:07:36;;;;;;;5.78;1.65;;;;;;;;;;7739886;23;20493;-60
2022/07/10 10:10:44;;;;;;;5.55;1.77;;;;;;;;;;7741306;23;20020;-60
2022/07/10 10:13:45;;;;;;;4.35;1.85;;;;;;;;;;7740701;23;20044;-60
2022/07/10 10:16:47;;;;;;;4.75;1.60;;;;;;;;;;7742405;23;20023;-60
2022/07/10 10:23:11;;;;;;;3.35;1.40;;;;;;;;;;7739277;23;19926;-60
2022/07/10 10:26:12;;;;;;;5.03;1.52;;;;;;;;;;7740608;23;20043;-59
2022/07/10 10:29:13;;;;;;;6.10;1.63;;;;;;;;;;7741426;23;20024;-60
2022/07/10 10:32:14;;;;;;;10.37;1.73;;;;;;;;;;7713426;23;20035;-60
2022/07/10 10:35:46;;;;;;;5.65;1.77;;;;;;;;;;7740368;23;20139;-60
2022/07/10 10:38:47;;;;;;;;;;;;;;;;;;7742569;23;20105;-60
2022/07/10 10:41:54;;;;;;;2.70;1.23;;;;;;;;;;7738793;23;19922;-60
2022/07/10 10:45:25;;;;;;;6.45;1.60;;;;;;;;;;7740264;23;20675;-59
2022/07/10 10:48:26;;;;;;;4.68;1.52;;;;;;;;;;7739811;23;20830;-59
2022/07/10 10:51:56;;;;;;;4.07;1.57;;;;;;;;;;7742082;23;20044;-58
2022/07/10 10:54:57;;;;;;;5.20;1.77;;;;;;;;;;7739531;23;20103;-60
2022/07/10 10:58:15;;;;;;;5.53;1.70;;;;;;;;;;7740986;23;20024;-60
2022/07/10 11:01:25;;;;;;;6.25;1.80;;;;;;;;;;7741302;23;20012;-60
2022/07/10 11:04:26;;;;;;;4.88;1.70;;;;;;;;;;7741052;23;20043;-60
2022/07/10 11:08:01;;;;;;;6.47;1.80;;;;;;;;;;7739040;23;20082;-60
2022/07/10 11:11:31;;;;;;;3.88;1.55;;;;;;;;;;7740624;23;20517;-60
2022/07/10 11:14:34;;;;;;;6.80;3.10;;;;;;;;;;7753968;23;20035;-60
2022/07/10 11:17:35;;;;;;;5.65;1.90;;;;;;;;;;7742164;23;20044;-60
2022/07/10 11:20:38;;;;;;;4.55;1.90;;;;;;;;;;7737242;23;20495;-60
2022/07/10 11:23:59;;;;;;;5.78;1.83;;;;;;;;;;7739369;23;20456;-60
2022/07/10 11:27:15;;;;;;;4.30;1.60;;;;;;;;;;7738795;23;20438;-60
2022/07/10 11:30:15;;;;;;;4.13;1.55;;;;;;;;;;7738378;23;20023;-61
2022/07/10 11:33:17;;;;;;;4.60;1.77;;;;;;;;;;7739428;23;20371;-59
2022/07/10 11:36:21;;;;;;;3.03;1.58;;;;;;;;;;7740211;23;20132;-59
2022/07/10 11:39:23;;;;;;;4.35;1.73;;;;;;;;;;7742092;23;20095;-58
2022/07/10 11:42:24;;;;;;;5.63;1.88;;;;;;;;;;7743820;23;20051;-58
2022/07/10 11:45:37;;;;;;;4.03;1.95;;;;;;;;;;7744799;23;20091;-59
2022/07/10 11:48:42;;;;;;;4.32;1.60;;;;;;;;;;7742716;23;20063;-59
2022/07/10 11:51:44;;;;;;;6.93;2.00;;;;;;;;;;7744645;23;20514;-60
2022/07/10 11:54:45;;;;;;;5.40;1.77;;;;;;;;;;7743695;23;20024;-59
2022/07/10 11:57:48;;;;;;;6.43;1.67;;;;;;;;;;7743877;23;20062;-57
2022/07/10 12:01:11;;;;;;;6.35;1.77;;;;;;;;;;7742320;23;20043;-59
2022/07/10 12:04:13;;;;;;;6.90;1.85;;;;;;;;;;7752289;23;20624;-59
2022/07/10 12:07:14;;;;;;;5.38;1.30;;;;;;;;;;7744041;23;20107;-58
2022/07/10 12:10:15;;;;;;;5.88;1.30;;;;;;;;;;7743770;23;20038;-59
2022/07/10 12:13:16;;;;;;;3.05;1.50;;;;;;;;;;7744993;23;20165;-59
2022/07/10 12:16:17;;;;;;;6.85;1.58;;;;;;;;;;7735508;23;20653;-59
2022/07/10 12:19:21;;;;;;;4.10;1.40;;;;;;;;;;7734943;23;20103;-53
2022/07/10 12:22:21;;;;;;;5.68;1.60;;;;;;;;;;7735517;23;20020;-59
2022/07/10 12:25:23;;;;;;;4.35;1.30;;;;;;;;;;7733609;23;20020;-59
2022/07/10 12:28:24;;;;;;;4.53;1.50;;;;;;;;;;7735677;23;20459;-58
2022/07/10 12:31:27;;;;;;;4.82;1.45;;;;;;;;;;7736901;23;20020;-60
2022/07/10 12:34:50;;;;;;;2.70;1.33;;;;;;;;;;7737045;23;20558;-58
2022/07/10 12:37:50;;;;;;;3.97;1.60;;;;;;;;;;7738371;23;20135;-59
2022/07/10 12:41:10;;;;;;;3.85;1.50;;;;;;;;;;7743326;23;20028;-61
2022/07/10 12:44:10;;;;;;;4.28;1.40;;;;;;;;;;7734930;23;20102;-61
2022/07/10 12:47:15;;;;;;;5.20;1.42;;;;;;;;;;7730590;23;20491;-60
2022/07/10 12:50:18;;;;;;;4.38;1.30;;;;;;;;;;7736512;23;20521;-58
2022/07/10 12:53:18;;;;;;;;;;;;;;;;;;7737525;23;20020;-60
2022/07/10 12:56:32;;;;;;;4.07;1.50;;;;;;;;;;7733468;23;19916;-58
2022/07/10 12:59:35;;;;;;;3.30;1.40;;;;;;;;;;7734169;23;20094;-58
2022/07/10 13:02:35;;;;;;;6.70;1.30;;;;;;;;;;7735218;23;20415;-58
2022/07/10 13:05:38;;;;;;;4.68;1.38;;;;;;;;;;7733389;23;20023;-59
2022/07/10 13:08:46;;;;;;;6.13;1.90;;;;;;;;;;7733963;23;20020;-58
2022/07/10 13:11:46;;;;;;;3.80;1.15;;;;;;;;;;7734254;23;20058;-60
2022/07/10 13:14:47;;;;;;;5.28;1.38;;;;;;;;;;7732978;23;20020;-58
2022/07/10 13:17:48;;;;;;;3.25;1.05;;;;;;;;;;7746246;23;20016;-59
2022/07/10 13:20:51;;;;;;;4.50;1.50;;;;;;;;;;7734815;23;20099;-58
2022/07/10 13:23:51;;;;;;;3.42;1.30;;;;;;;;;;7735210;23;20095;-58
2022/07/10 13:26:55;;;;;;;4.38;1.40;;;;;;;;;;7733968;23;20012;-58
2022/07/10 13:29:56;;;;;;;6.00;1.48;;;;;;;;;;7735623;23;20020;-58
2022/07/10 13:32:56;;;;;;;4.03;1.30;;;;;;;;;;7734614;23;20016;-58
2022/07/10 13:36:00;;;;;;;4.28;1.35;;;;;;;;;;7706292;23;20089;-59
2022/07/10 13:39:01;;;;;;;3.05;1.10;;;;;;;;;;7733317;23;20119;-60
2022/07/10 13:42:01;;;;;;;2.47;1.10;;;;;;;;;;7733832;23;20016;-67
2022/07/10 13:45:02;;;;;;;4.55;1.20;;;;;;;;;;7734033;23;20016;-63
2022/07/10 13:48:04;;;;;;;3.47;1.20;;;;;;;;;;7736017;23;20028;-70
2022/07/10 13:51:05;;;;;;;3.50;1.20;;;;;;;;;;7733018;23;20047;-71
2022/07/10 13:54:05;;;;;;;3.27;1.13;;;;;;;;;;7733858;23;20448;-68
2022/07/10 13:57:09;;;;;;;3.20;1.20;;;;;;;;;;7732326;23;20102;-68
2022/07/10 14:00:13;;;;;;;3.30;1.40;;;;;;;;;;7734379;23;20048;-68
2022/07/10 14:03:14;;;;;;;2.97;1.10;;;;;;;;;;7734497;23;20105;-56
2022/07/10 14:06:14;;;;;;;2.97;1.40;;;;;;;;;;7732674;23;20016;-56
2022/07/10 14:09:15;;;;;;;5.22;1.50;;;;;;;;;;7732470;23;20016;-56
2022/07/10 14:12:16;;;;;;;2.83;1.20;;;;;;;;;;7735639;23;20019;-59
2022/07/10 14:15:17;;;;;;;4.22;1.30;;;;;;;;;;7732576;23;20380;-53
2022/07/10 14:18:34;;;;;;;5.45;1.35;;;;;;;;;;7733870;23;20089;-58
2022/07/10 14:21:35;;;;;;;4.75;1.10;;;;;;;;;;7734245;23;20131;-58
2022/07/10 14:24:35;;;;;;;2.30;1.15;;;;;;;;;;7732943;23;20016;-57
2022/07/10 14:27:36;;;;;;;3.90;1.23;;;;;;;;;;7735297;23;20023;-55
2022/07/10 14:30:36;;;;;;;3.17;1.30;;;;;;;;;;7734443;23;20020;-59
2022/07/10 14:33:37;;;;;;;5.38;1.58;;;;;;;;;;7735518;23;20852;-59
2022/07/10 14:36:37;;;;;;;3.80;1.50;;;;;;;;;;7732881;23;20024;-58
2022/07/10 14:39:38;;;;;;;3.15;1.30;;;;;;;;;;7734388;23;20016;-58
2022/07/10 14:42:39;;;;;;;4.72;1.50;;;;;;;;;;7734514;23;20024;-59
2022/07/10 14:45:39;;;;;;;2.38;1.20;;;;;;;;;;7741996;23;20027;-55
2022/07/10 14:48:40;;;;;;;1.73;1.00;;;;;;;;;;7733812;23;20832;-59
2022/07/10 14:51:41;;;;;;;4.10;1.05;;;;;;;;;;7738421;23;20087;-60
2022/07/10 14:54:42;;;;;;;4.07;1.03;;;;;;;;;;7732534;23;20387;-53
2022/07/10 14:57:42;;;;;;;3.42;1.00;;;;;;;;;;7735532;23;20020;-54
2022/07/10 15:00:43;;;;;;;3.05;1.15;;;;;;;;;;7734454;23;20078;-59
2022/07/10 15:03:44;;;;;;;2.65;1.10;;;;;;;;;;7735113;23;20020;-52
2022/07/10 15:06:47;;;;;;;2.83;1.10;;;;;;;;;;7733622;23;20016;-56
2022/07/10 15:09:47;;;;;;;3.67;1.33;;;;;;;;;;7733818;23;20509;-56
2022/07/10 15:12:48;;;;;;;2.70;1.08;;;;;;;;;;7735585;23;20019;-59
2022/07/10 15:15:50;;;;;;;3.58;1.10;;;;;;;;;;7733165;23;20016;-52
2022/07/10 15:18:51;;;;;;;2.38;1.20;;;;;;;;;;7733968;23;20106;-60
2022/07/10 15:21:51;;;;;;;5.50;1.30;;;;;;;;;;7733872;23;20441;-61
2022/07/10 15:24:52;;;;;;;2.50;1.20;;;;;;;;;;7732261;23;20085;-59
2022/07/10 15:27:53;;;;;;;3.00;1.13;;;;;;;;;;7734065;23;20016;-59
2022/07/10 15:30:53;;;;;;;6.90;1.58;;;;;;;;;;7733937;23;20135;-58
2022/07/10 15:33:54;;;;;;;3.13;1.38;;;;;;;;;;7734815;23;20039;-56
2022/07/10 15:36:54;;;;;;;4.03;1.13;;;;;;;;;;7732509;23;20097;-59
2022/07/10 15:39:55;;;;;;;2.30;1.40;;;;;;;;;;7733358;23;20020;-59
2022/07/10 15:42:58;;;;;;;4.95;1.25;;;;;;;;;;7734569;23;20022;-55
2022/07/10 15:45:59;;;;;;;6.85;1.35;;;;;;;;;;7731370;23;20024;-59
2022/07/10 15:49:00;;;;;;;2.92;1.20;;;;;;;;;;7734133;23;20573;-58
2022/07/10 15:52:00;;;;;;;4.10;1.20;;;;;;;;;;7736485;23;20016;-54
2022/07/10 15:55:01;;;;;;;2.78;1.10;;;;;;;;;;7735190;23;20061;-53
2022/07/10 15:58:02;;;;;;;2.67;1.20;;;;;;;;;;7735351;23;20028;-59
2022/07/10 16:01:02;;;;;;;3.58;1.23;;;;;;;;;;7735250;23;20099;-58
2022/07/10 16:04:03;;;;;;;2.65;1.10;;;;;;;;;;7735902;23;20350;-56
2022/07/10 16:07:05;;;;;;;2.97;1.17;;;;;;;;;;7732883;23;20027;-58
2022/07/10 16:10:06;;;;;;;3.92;1.10;;;;;;;;;;7733346;23;20135;-58
2022/07/10 16:13:06;;;;;;;4.00;1.35;;;;;;;;;;7733693;23;20020;-56
2022/07/10 16:16:07;;;;;;;3.03;1.30;;;;;;;;;;7733191;23;20024;-56
2022/07/10 16:19:07;;;;;;;2.97;1.48;;;;;;;;;;7734775;23;20411;-58
2022/07/10 16:22:08;;;;;;;4.00;1.98;;;;;;;;;;7734659;23;20024;-58
2022/07/10 16:28:29;;;;;;;3.05;1.48;;;;;;;;;;7736526;23;20103;-58
2022/07/10 16:31:30;;;;;;;2.97;1.50;;;;;;;;;;7735701;23;20023;-57
2022/07/10 16:34:31;;;;;;;4.03;1.58;;;;;;;;;;7735955;23;20724;-56
2022/07/10 16:37:32;;;;;;;5.35;1.65;;;;;;;;;;7747939;23;20023;-58
2022/07/10 16:40:32;;;;;;;4.57;1.50;;;;;;;;;;7734920;23;20127;-58
2022/07/10 16:43:33;;;;;;;4.25;1.40;;;;;;;;;;7736686;23;20016;-59
2022/07/10 16:46:34;;;;;;;4.13;1.50;;;;;;;;;;7733696;23;20020;-56
2022/07/10 16:49:35;;;;;;;4.13;1.67;;;;;;;;;;7736053;23;20032;-54
2022/07/10 16:52:40;;;;;;;4.20;1.50;;;;;;;;;;7736384;23;20699;-59
2022/07/10 16:55:41;;;;;;;3.83;1.52;;;;;;;;;;7734385;23;20055;-59
2022/07/10 16:58:42;;;;;;;7.25;3.58;;;;;;;;;;7735708;23;20024;-58
2022/07/10 17:01:42;;;;;;;4.88;1.95;;;;;;;;;;7736696;23;20443;-57
2022/07/10 17:04:43;;;;;;;18.33;12.77;;;;;;;;;;7732680;23;20043;-57
2022/07/10 17:07:43;;;;;;;3.65;1.95;;;;;;;;;;7720868;23;20472;-58
2022/07/10 17:10:44;;;;;;;3.67;1.63;;;;;;;;;;7733614;23;20837;-54
2022/07/10 17:13:45;;;;;;;8.23;1.42;;;;;;;;;;7734453;23;20027;-57
2022/07/10 17:16:45;;;;;;;5.00;1.75;;;;;;;;;;7732479;23;20021;-60
2022/07/10 17:19:46;;;;;;;2.67;1.20;;;;;;;;;;7734253;23;20020;-59
2022/07/10 17:22:47;;;;;;;4.68;1.55;;;;;;;;;;7734733;23;20020;-52
2022/07/10 17:25:47;;;;;;;4.95;2.63;;;;;;;;;;7732402;23;20016;-54
2022/07/10 17:28:48;;;;;;;9.07;4.50;;;;;;;;;;7734828;23;20325;-59
2022/07/10 17:31:49;;;;;;;8.13;5.15;;;;;;;;;;7734651;23;20016;-60
2022/07/10 17:34:50;;;;;;;4.23;1.57;;;;;;;;;;7733741;23;20091;-52
2022/07/10 17:37:50;;;;;;;12.65;3.60;;;;;;;;;;7735334;23;20144;-57
2022/07/10 17:40:52;;;;;;;4.28;1.88;;;;;;;;;;7734814;23;20042;-59
2022/07/10 17:43:52;;;;;;;5.35;2.00;;;;;;;;;;7735606;23;20019;-54
2022/07/10 17:46:53;;;;;;;4.95;1.60;;;;;;;;;;7736814;23;20391;-59
2022/07/10 17:49:54;;;;;;;6.15;1.92;;;;;;;;;;7734516;23;20028;-55
2022/07/10 17:52:55;;;;;;;4.22;2.35;;;;;;;;;;7735741;23;20031;-54
2022/07/10 17:55:55;;;;;;;8.35;2.33;;;;;;;;;;7734355;23;20061;-50
2022/07/10 17:58:56;;;;;;;6.10;2.72;;;;;;;;;;7735045;23;20139;-51
2022/07/10 18:01:57;;;;;;;7.10;3.75;;;;;;;;;;7734633;23;20020;-52
2022/07/10 18:04:58;;;;;;;11.40;7.77;;;;;;;;;;7733646;23;20069;-49
2022/07/10 18:07:58;;;;;;;8.27;4.70;;;;;;;;;;7734135;23;20051;-52
2022/07/10 18:11:00;;;;;;;3.55;1.73;;;;;;;;;;7734261;23;20027;-54
2022/07/10 18:14:00;;;;;;;4.40;1.67;;;;;;;;;;7735370;23;20020;-50
2022/07/10 18:17:01;;;;;;;2.80;1.38;;;;;;;;;;7732225;23;20456;-54
2022/07/10 18:20:02;;;;;;;3.78;1.30;;;;;;;;;;7734574;23;20538;-51
2022/07/10 18:23:06;;;;;;;4.27;1.40;;;;;;;;;;7735107;23;20043;-54